Hanjin Port Hedland — 3FEM3 — position and weather

sailwx.info

Track history (hours):
 
Tides and Currents Weather Stations Pressure Air Temp Water Temp Dewpoint Dewpoint Depression Visibility Wind Speed Wind Dir Waves Ship Positions

Hanjin Port Hedland

Last reported at 2017-Aug-23 17:05 UTC. Time now 2017-Sep-26 22:04 UTC.
Position S 32°34' E 152°48'.
Warning: this ship's position is 34 days out of date.

Length 292 m; draft 15.3 m.

Type: Cargo ship. MMSI: 372409000.

Date/timePositionNaut miles runAvg speedWind from/ knotsBaromVisibWave heightAir tempDewpointWater temp
2017-Aug-23 17:05S 32°34' E 152°48'110.1
2017-Aug-23 16:56S 32°35' E 152°47'4 9.8
2017-Aug-23 16:30S 32°39' E 152°44'510.5
2017-Aug-23 16:00S 32°42' E 152°39'510.2
2017-Aug-23 15:30S 32°45' E 152°34'510.1
2017-Aug-23 15:00S 32°48' E 152°29'510.1
2017-Aug-23 14:30S 32°50' E 152°24'1010.1
2017-Aug-23 13:30S 32°53' E 152°13'5 9.8
2017-Aug-23 13:00S 32°54' E 152°07'510.1
2017-Aug-23 12:30S 32°56' E 152°01'510.1
2017-Aug-23 12:00S 32°58' E 151°56'4 8.1
2017-Aug-23 11:30S 32°58' E 151°51'4 8.7
2017-Aug-23 11:00S 32°55' E 151°48'2 3.1
2017-Aug-23 10:30S 32°54' E 151°46'1 1.9
2017-Aug-23 09:58S 32°53' E 151°46'0 0.0
2017-Aug-23 09:28S 32°53' E 151°46'0 0.0
2017-Aug-23 08:58S 32°53' E 151°46'0 0.0
2017-Aug-23 08:28S 32°53' E 151°46'0 0.0
2017-Aug-23 07:55S 32°53' E 151°46'0 0.0
2017-Aug-23 07:28S 32°53' E 151°46'0 0.0
2017-Aug-23 06:58S 32°53' E 151°46'0 0.0
2017-Aug-23 06:28S 32°53' E 151°46'0 0.0
2017-Aug-23 05:58S 32°53' E 151°46'0 0.0
2017-Aug-23 05:28S 32°53' E 151°46'0 0.0
2017-Aug-23 04:58S 32°53' E 151°46'0 0.0
2017-Aug-23 04:28S 32°53' E 151°46'0 0.0
2017-Aug-23 03:58S 32°53' E 151°46'0 0.0
2017-Aug-23 03:25S 32°53' E 151°46'0 0.0
2017-Aug-23 02:58S 32°53' E 151°46'0 0.0
2017-Aug-23 02:28S 32°53' E 151°46'0 0.0
2017-Aug-23 01:58S 32°53' E 151°46'0 0.0
2017-Aug-23 01:28S 32°53' E 151°46'0 0.0
2017-Aug-23 00:58S 32°53' E 151°46'0 0.0
2017-Aug-23 00:28S 32°53' E 151°46'0 0.0
2017-Aug-22 23:58S 32°53' E 151°46'0 0.0
2017-Aug-22 23:28S 32°53' E 151°46'0 0.0
2017-Aug-22 22:58S 32°53' E 151°46'0 0.0
2017-Aug-22 22:28S 32°53' E 151°46'0 0.0
2017-Aug-22 21:58S 32°53' E 151°46'0 0.0
2017-Aug-22 21:28S 32°53' E 151°46'0 0.0
2017-Aug-22 20:58S 32°53' E 151°46'0 0.0
2017-Aug-22 20:28S 32°53' E 151°46'0 0.0
2017-Aug-22 19:58S 32°53' E 151°46'0 0.0
2017-Aug-22 19:28S 32°53' E 151°46'0 0.0
2017-Aug-22 18:58S 32°53' E 151°46'0 0.0
2017-Aug-22 18:28S 32°53' E 151°46'0 0.0
2017-Aug-22 17:55S 32°53' E 151°46'0 0.0
2017-Aug-22 17:28S 32°53' E 151°46'0 0.0
2017-Aug-22 16:58S 32°53' E 151°46'0 0.0
2017-Aug-22 16:28S 32°53' E 151°46'0 0.0
2017-Aug-22 15:58S 32°53' E 151°46'0 0.0
2017-Aug-22 15:28S 32°53' E 151°46'0 0.0
2017-Aug-22 14:55S 32°53' E 151°46'0 0.0
2017-Aug-22 14:28S 32°53' E 151°46'0 0.0
2017-Aug-22 13:58S 32°53' E 151°46'0 0.0
2017-Aug-22 13:28S 32°53' E 151°46'0 0.0
2017-Aug-22 12:58S 32°53' E 151°46'0 0.0
2017-Aug-22 12:28S 32°53' E 151°46'0 0.0
2017-Aug-22 11:55S 32°53' E 151°46'0 0.0
2017-Aug-22 11:28S 32°53' E 151°46'0 0.0
2017-Aug-22 10:58S 32°53' E 151°46'0 0.0
2017-Aug-22 10:28S 32°53' E 151°46'0 0.0
2017-Aug-22 09:58S 32°53' E 151°46'0 0.0
2017-Aug-22 09:28S 32°53' E 151°46'0 0.0
2017-Aug-22 08:58S 32°53' E 151°46'0 0.0
2017-Aug-22 08:28S 32°53' E 151°46'0 0.0
2017-Aug-22 07:58S 32°53' E 151°46'0 0.0
2017-Aug-22 07:28S 32°53' E 151°46'0 0.0
2017-Aug-22 06:58S 32°53' E 151°46'0 0.0
2017-Aug-22 06:28S 32°53' E 151°46'0 0.0
2017-Aug-22 05:58S 32°53' E 151°46'0 0.0
2017-Aug-22 05:28S 32°53' E 151°46'0 0.0
2017-Aug-22 04:58S 32°53' E 151°46'0 0.0
2017-Aug-22 04:28S 32°53' E 151°46'0 0.0
2017-Aug-22 03:58S 32°53' E 151°46'0 0.0
2017-Aug-22 03:28S 32°53' E 151°46'0 0.0
2017-Aug-22 02:58S 32°53' E 151°46'0 0.0
2017-Aug-22 02:28S 32°53' E 151°46'0 0.6
2017-Aug-22 02:00S 32°53' E 151°46'2 4.4
2017-Aug-22 01:30S 32°55' E 151°47'5 9.3
2017-Aug-22 01:00S 32°58' E 151°52'3 5.9
2017-Aug-22 00:30S 33°00' E 151°54'5 9.6
2017-Aug-22 00:00S 33°03' E 151°58'510.4
2017-Aug-21 23:30S 33°07' E 152°03'0 0.9
2017-Aug-21 22:58S 33°07' E 152°03'0 0.7
2017-Aug-21 22:28S 33°07' E 152°04'0 0.7
2017-Aug-21 21:58S 33°08' E 152°04'0 0.6
2017-Aug-21 21:28S 33°08' E 152°04'0 0.6
2017-Aug-21 20:58S 33°08' E 152°04'0 0.6
2017-Aug-21 20:28S 33°08' E 152°04'0 0.6
2017-Aug-21 19:58S 33°09' E 152°05'0 0.9
2017-Aug-21 19:25S 33°09' E 152°05'0 1.0
2017-Aug-21 18:58S 33°10' E 152°05'1 1.0
2017-Aug-21 18:25S 33°10' E 152°05'0 0.9
2017-Aug-21 17:58S 33°10' E 152°05'0 0.9
2017-Aug-21 17:25S 33°11' E 152°06'0 0.9
2017-Aug-21 16:55S 33°11' E 152°06'0 0.7
2017-Aug-21 16:28S 33°12' E 152°06'0 0.9
2017-Aug-21 15:58S 33°12' E 152°06'1 1.1
2017-Aug-21 15:25S 33°13' E 152°06'1 1.2
2017-Aug-21 14:58S 33°13' E 152°06'0 1.0
2017-Aug-21 14:28S 33°14' E 152°06'0 1.0
2017-Aug-21 13:58S 33°14' E 152°06'1 1.3
2017-Aug-21 13:25S 33°15' E 152°05'1 2.2
2017-Aug-21 13:00S 33°16' E 152°05'4 8.4
2017-Aug-21 12:29S 33°19' E 152°02'612.5
2017-Aug-21 12:00S 33°24' E 151°57'510.8
2017-Aug-21 11:30S 33°28' E 151°52'3 1.6
2017-Aug-21 09:36S 33°25' E 151°55'0 1.6
2017-Aug-21 09:18S 33°25' E 151°55'6 1.6
2017-Aug-21 05:39S 33°22' E 152°02'0 1.3
2017-Aug-21 05:27S 33°22' E 152°02'1 1.4
2017-Aug-21 04:39S 33°22' E 152°03'0 1.5
2017-Aug-21 04:27S 33°22' E 152°03'1 1.4
2017-Aug-21 04:00S 33°22' E 152°04'8 1.7
2017-Aug-20 23:37S 33°19' E 152°13'0 4.1
2017-Aug-20 23:30S 33°19' E 152°13'612.0
2017-Aug-20 22:59S 33°13' E 152°16'714.6
2017-Aug-20 22:30S 33°07' E 152°20'510.7
2017-Aug-20 22:00S 33°02' E 152°21'3 5.5
2017-Aug-20 21:30S 32°59' E 152°20'2 4.9
2017-Aug-20 21:00S 32°57' E 152°21'2 4.7
2017-Aug-20 20:30S 32°55' E 152°20'2 4.7
2017-Aug-20 20:00S 32°53' E 152°19'2 3.9
2017-Aug-20 19:30S 32°52' E 152°17'2 4.9
2017-Aug-20 19:00S 32°53' E 152°14'2 4.9
2017-Aug-20 18:30S 32°54' E 152°11'3 5.4
2017-Aug-20 18:00S 32°57' E 152°10'3 5.8
2017-Aug-20 17:31S 32°59' E 152°08'3 5.8
2017-Aug-20 17:00S 33°02' E 152°07'3 5.9
2017-Aug-20 16:30S 33°05' E 152°06'3 5.9
2017-Aug-20 16:00S 33°08' E 152°05'2 3.5
2017-Aug-20 15:31S 33°09' E 152°05'1 1.4
2017-Aug-20 15:00S 33°10' E 152°04'1 1.3
2017-Aug-20 14:30S 33°11' E 152°04'1 1.2
2017-Aug-20 14:00S 33°11' E 152°04'1 1.2
2017-Aug-20 13:30S 33°12' E 152°03'1 2.0
2017-Aug-20 13:00S 33°13' E 152°03'2 4.7
2017-Aug-20 12:30S 33°15' E 152°01'3 5.4
2017-Aug-20 11:59S 33°17' E 151°60'5 0.4
2017-Aug-19 21:04S 33°17' E 152°06'0 3.0
2017-Aug-19 21:00S 33°17' E 152°06'1 2.3
2017-Aug-19 20:30S 33°16' E 152°06'1 2.1
2017-Aug-19 20:00S 33°15' E 152°06'1 2.0
2017-Aug-19 19:30S 33°14' E 152°07'1 2.0
2017-Aug-19 19:00S 33°14' E 152°08'1 1.7
2017-Aug-19 18:28S 33°13' E 152°09'1 1.9
2017-Aug-19 17:59S 33°13' E 152°10'2 3.3
2017-Aug-19 17:30S 33°12' E 152°11'1 3.0
2017-Aug-19 17:00S 33°11' E 152°12'1 2.7
2017-Aug-19 16:30S 33°10' E 152°14'2 3.0
2017-Aug-19 16:00S 33°08' E 152°14'2 3.1
2017-Aug-19 15:30S 33°07' E 152°15'2 3.3
2017-Aug-19 15:00S 33°05' E 152°16'3 3.2
2017-Aug-19 14:01S 33°03' E 152°18'2 3.7
2017-Aug-19 13:30S 33°01' E 152°19'1 2.8
2017-Aug-19 13:00S 33°00' E 152°20'1 2.9
2017-Aug-19 12:30S 32°59' E 152°21'2 3.2
2017-Aug-19 12:00S 32°58' E 152°22'1 1.8
2017-Aug-19 11:30S 32°58' E 152°23'1 1.6
2017-Aug-19 11:00S 32°57' E 152°23'2 3.3
2017-Aug-19 10:30S 32°55' E 152°23'2 3.2
2017-Aug-19 10:00S 32°54' E 152°23'1 2.9
2017-Aug-19 09:30S 32°52' E 152°24'2 4.0
2017-Aug-19 09:01S 32°51' E 152°25'3 5.0
2017-Aug-19 08:30S 32°48' E 152°26'3 5.2
2017-Aug-19 08:00S 32°46' E 152°28'3 5.6
2017-Aug-19 07:30S 32°45' E 152°31'3 5.3
2017-Aug-19 07:00S 32°43' E 152°33'3 6.1
2017-Aug-19 06:30S 32°42' E 152°36'3 6.5
2017-Aug-19 06:00S 32°39' E 152°38'3 6.8
2017-Aug-19 05:30S 32°36' E 152°40'3 6.7
2017-Aug-19 05:00S 32°33' E 152°41'3 5.9
2017-Aug-19 04:30S 32°30' E 152°43'4 6.1
2017-Aug-19 03:55S 32°27' E 152°45'2 6.1
2017-Aug-19 03:30S 32°25' E 152°46'3 0.2
2017-Aug-18 09:58S 32°28' E 152°45'4 7.7
2017-Aug-18 09:24S 32°29' E 152°49'  
2017-Aug-15 20:16S 33°01' E 153°48'1 4.6
2017-Aug-15 20:00S 32°60' E 153°47'2 4.4
2017-Aug-15 19:30S 32°58' E 153°46'2 4.4
2017-Aug-15 19:00S 32°56' E 153°45'3 4.3
2017-Aug-15 18:25S 32°54' E 153°43'2 4.0
2017-Aug-15 17:56S 32°52' E 153°42'6 3.7
2017-Aug-15 16:16S 32°47' E 153°38'2 3.5
2017-Aug-15 15:45S 32°46' E 153°36'1 3.6
2017-Aug-15 15:30S 32°45' E 153°35'2 3.6
2017-Aug-15 15:01S 32°44' E 153°34'2 3.4
2017-Aug-15 14:25S 32°43' E 153°32'1 3.3
2017-Aug-15 14:01S 32°42' E 153°31'2 3.4
2017-Aug-15 13:30S 32°41' E 153°29'2 3.2
2017-Aug-15 13:01S 32°40' E 153°28'2 3.2
2017-Aug-15 12:31S 32°39' E 153°26'2 3.4
2017-Aug-15 12:01S 32°37' E 153°25'3 5.1
2017-Aug-15 11:31S 32°37' E 153°22'510.0
2017-Aug-15 11:01S 32°39' E 153°17'611.6
2017-Aug-15 10:30S 32°40' E 153°10'612.7
2017-Aug-15 10:01S 32°41' E 153°02'612.9
2017-Aug-15 09:31S 32°41' E 152°55'612.8
2017-Aug-15 09:01S 32°42' E 152°47'1 1.9
2017-Aug-15 08:29S 32°43' E 152°47'1 1.5
2017-Aug-15 07:59S 32°43' E 152°47'1 1.5
2017-Aug-15 07:29S 32°43' E 152°48'1 1.3
2017-Aug-15 06:59S 32°43' E 152°49'0 0.8
2017-Aug-15 06:29S 32°43' E 152°50'1 1.0
2017-Aug-15 05:59S 32°43' E 152°50'0 0.8
2017-Aug-15 05:29S 32°43' E 152°51'0 0.4
2017-Aug-15 04:59S 32°43' E 152°51'0 0.4
2017-Aug-15 04:29S 32°43' E 152°51'0 0.5
2017-Aug-15 03:59S 32°43' E 152°51'0 0.6
2017-Aug-15 03:26S 32°42' E 152°52'0 0.6
2017-Aug-15 02:59S 32°42' E 152°52'0 0.6
2017-Aug-15 02:29S 32°42' E 152°52'0 0.7
2017-Aug-15 01:59S 32°42' E 152°53'0 0.7
2017-Aug-15 01:29S 32°42' E 152°53'0 0.6
2017-Aug-15 00:59S 32°42' E 152°53'0 0.7
2017-Aug-15 00:29S 32°42' E 152°54'0 0.6
2017-Aug-14 23:59S 32°41' E 152°54'0 0.5
2017-Aug-14 23:29S 32°41' E 152°54'0 0.4
2017-Aug-14 22:59S 32°41' E 152°54'0 0.1
2017-Aug-14 22:29S 32°41' E 152°54'0 0.2
2017-Aug-14 21:59S 32°41' E 152°55'0 0.0
2017-Aug-14 21:29S 32°41' E 152°55'0 0.1
2017-Aug-14 20:59S 32°41' E 152°54'0 0.3
2017-Aug-14 20:29S 32°41' E 152°54'0 0.4
2017-Aug-14 19:59S 32°41' E 152°54'0 0.4
2017-Aug-14 19:29S 32°41' E 152°54'0 0.4
2017-Aug-14 18:59S 32°41' E 152°54'0 0.5
2017-Aug-14 18:29S 32°41' E 152°53'0 0.5
2017-Aug-14 17:56S 32°41' E 152°53'0 0.4
2017-Aug-14 17:29S 32°40' E 152°53'0 0.6
2017-Aug-14 16:59S 32°40' E 152°53'1 1.3
2017-Aug-14 16:29S 32°40' E 152°52'1 2.2
2017-Aug-14 16:00S 32°39' E 152°51'3 6.4
2017-Aug-14 15:30S 32°37' E 152°49'510.7
2017-Aug-14 15:00S 32°31' E 152°48'713.1
2017-Aug-14 14:30S 32°25' E 152°51'612.9
2017-Aug-14 14:00S 32°19' E 152°54'713.0
2017-Aug-14 13:30S 32°13' E 152°57'913.2
2017-Aug-14 12:50S 32°05' E 153°01'  
Track history (hours):
 
Tides and Currents Weather Stations Pressure Air Temp Water Temp Dewpoint Dewpoint Depression Visibility Wind Speed Wind Dir Waves Ship Positions

Hanjin Port Hedland

Last reported at 2017-Aug-23 17:05 UTC. Time now 2017-Sep-26 22:04 UTC.
Position S 32°34' E 152°48'.
Warning: this ship's position is 34 days out of date.

Length 292 m; draft 15.3 m.

Type: Cargo ship. MMSI: 372409000.

Date/timePositionNaut miles runAvg speedWind from/ knotsBaromVisibWave heightAir tempDewpointWater temp
2017-Aug-23 17:05S 32°34' E 152°48'110.1
2017-Aug-23 16:56S 32°35' E 152°47'4 9.8
2017-Aug-23 16:30S 32°39' E 152°44'510.5
2017-Aug-23 16:00S 32°42' E 152°39'510.2
2017-Aug-23 15:30S 32°45' E 152°34'510.1
2017-Aug-23 15:00S 32°48' E 152°29'510.1
2017-Aug-23 14:30S 32°50' E 152°24'1010.1
2017-Aug-23 13:30S 32°53' E 152°13'5 9.8
2017-Aug-23 13:00S 32°54' E 152°07'510.1
2017-Aug-23 12:30S 32°56' E 152°01'510.1
2017-Aug-23 12:00S 32°58' E 151°56'4 8.1
2017-Aug-23 11:30S 32°58' E 151°51'4 8.7
2017-Aug-23 11:00S 32°55' E 151°48'2 3.1
2017-Aug-23 10:30S 32°54' E 151°46'1 1.9
2017-Aug-23 09:58S 32°53' E 151°46'0 0.0
2017-Aug-23 09:28S 32°53' E 151°46'0 0.0
2017-Aug-23 08:58S 32°53' E 151°46'0 0.0
2017-Aug-23 08:28S 32°53' E 151°46'0 0.0
2017-Aug-23 07:55S 32°53' E 151°46'0 0.0
2017-Aug-23 07:28S 32°53' E 151°46'0 0.0
2017-Aug-23 06:58S 32°53' E 151°46'0 0.0
2017-Aug-23 06:28S 32°53' E 151°46'0 0.0
2017-Aug-23 05:58S 32°53' E 151°46'0 0.0
2017-Aug-23 05:28S 32°53' E 151°46'0 0.0
2017-Aug-23 04:58S 32°53' E 151°46'0 0.0
2017-Aug-23 04:28S 32°53' E 151°46'0 0.0
2017-Aug-23 03:58S 32°53' E 151°46'0 0.0
2017-Aug-23 03:25S 32°53' E 151°46'0 0.0
2017-Aug-23 02:58S 32°53' E 151°46'0 0.0
2017-Aug-23 02:28S 32°53' E 151°46'0 0.0
2017-Aug-23 01:58S 32°53' E 151°46'0 0.0
2017-Aug-23 01:28S 32°53' E 151°46'0 0.0
2017-Aug-23 00:58S 32°53' E 151°46'0 0.0
2017-Aug-23 00:28S 32°53' E 151°46'0 0.0
2017-Aug-22 23:58S 32°53' E 151°46'0 0.0
2017-Aug-22 23:28S 32°53' E 151°46'0 0.0
2017-Aug-22 22:58S 32°53' E 151°46'0 0.0
2017-Aug-22 22:28S 32°53' E 151°46'0 0.0
2017-Aug-22 21:58S 32°53' E 151°46'0 0.0
2017-Aug-22 21:28S 32°53' E 151°46'0 0.0
2017-Aug-22 20:58S 32°53' E 151°46'0 0.0
2017-Aug-22 20:28S 32°53' E 151°46'0 0.0
2017-Aug-22 19:58S 32°53' E 151°46'0 0.0
2017-Aug-22 19:28S 32°53' E 151°46'0 0.0
2017-Aug-22 18:58S 32°53' E 151°46'0 0.0
2017-Aug-22 18:28S 32°53' E 151°46'0 0.0
2017-Aug-22 17:55S 32°53' E 151°46'0 0.0
2017-Aug-22 17:28S 32°53' E 151°46'0 0.0
2017-Aug-22 16:58S 32°53' E 151°46'0 0.0
2017-Aug-22 16:28S 32°53' E 151°46'0 0.0
2017-Aug-22 15:58S 32°53' E 151°46'0 0.0
2017-Aug-22 15:28S 32°53' E 151°46'0 0.0
2017-Aug-22 14:55S 32°53' E 151°46'0 0.0
2017-Aug-22 14:28S 32°53' E 151°46'0 0.0
2017-Aug-22 13:58S 32°53' E 151°46'0 0.0
2017-Aug-22 13:28S 32°53' E 151°46'0 0.0
2017-Aug-22 12:58S 32°53' E 151°46'0 0.0
2017-Aug-22 12:28S 32°53' E 151°46'0 0.0
2017-Aug-22 11:55S 32°53' E 151°46'0 0.0
2017-Aug-22 11:28S 32°53' E 151°46'0 0.0
2017-Aug-22 10:58S 32°53' E 151°46'0 0.0
2017-Aug-22 10:28S 32°53' E 151°46'0 0.0
2017-Aug-22 09:58S 32°53' E 151°46'0 0.0
2017-Aug-22 09:28S 32°53' E 151°46'0 0.0
2017-Aug-22 08:58S 32°53' E 151°46'0 0.0
2017-Aug-22 08:28S 32°53' E 151°46'0 0.0
2017-Aug-22 07:58S 32°53' E 151°46'0 0.0
2017-Aug-22 07:28S 32°53' E 151°46'0 0.0
2017-Aug-22 06:58S 32°53' E 151°46'0 0.0
2017-Aug-22 06:28S 32°53' E 151°46'0 0.0
2017-Aug-22 05:58S 32°53' E 151°46'0 0.0
2017-Aug-22 05:28S 32°53' E 151°46'0 0.0
2017-Aug-22 04:58S 32°53' E 151°46'0 0.0
2017-Aug-22 04:28S 32°53' E 151°46'0 0.0
2017-Aug-22 03:58S 32°53' E 151°46'0 0.0
2017-Aug-22 03:28S 32°53' E 151°46'0 0.0
2017-Aug-22 02:58S 32°53' E 151°46'0 0.0
2017-Aug-22 02:28S 32°53' E 151°46'0 0.6
2017-Aug-22 02:00S 32°53' E 151°46'2 4.4
2017-Aug-22 01:30S 32°55' E 151°47'5 9.3
2017-Aug-22 01:00S 32°58' E 151°52'3 5.9
2017-Aug-22 00:30S 33°00' E 151°54'5 9.6
2017-Aug-22 00:00S 33°03' E 151°58'510.4
2017-Aug-21 23:30S 33°07' E 152°03'0 0.9
2017-Aug-21 22:58S 33°07' E 152°03'0 0.7
2017-Aug-21 22:28S 33°07' E 152°04'0 0.7
2017-Aug-21 21:58S 33°08' E 152°04'0 0.6
2017-Aug-21 21:28S 33°08' E 152°04'0 0.6
2017-Aug-21 20:58S 33°08' E 152°04'0 0.6
2017-Aug-21 20:28S 33°08' E 152°04'0 0.6
2017-Aug-21 19:58S 33°09' E 152°05'0 0.9
2017-Aug-21 19:25S 33°09' E 152°05'0 1.0
2017-Aug-21 18:58S 33°10' E 152°05'1 1.0
2017-Aug-21 18:25S 33°10' E 152°05'0 0.9
2017-Aug-21 17:58S 33°10' E 152°05'0 0.9
2017-Aug-21 17:25S 33°11' E 152°06'0 0.9
2017-Aug-21 16:55S 33°11' E 152°06'0 0.7
2017-Aug-21 16:28S 33°12' E 152°06'0 0.9
2017-Aug-21 15:58S 33°12' E 152°06'1 1.1
2017-Aug-21 15:25S 33°13' E 152°06'1 1.2
2017-Aug-21 14:58S 33°13' E 152°06'0 1.0
2017-Aug-21 14:28S 33°14' E 152°06'0 1.0
2017-Aug-21 13:58S 33°14' E 152°06'1 1.3
2017-Aug-21 13:25S 33°15' E 152°05'1 2.2
2017-Aug-21 13:00S 33°16' E 152°05'4 8.4
2017-Aug-21 12:29S 33°19' E 152°02'612.5
2017-Aug-21 12:00S 33°24' E 151°57'510.8
2017-Aug-21 11:30S 33°28' E 151°52'3 1.6
2017-Aug-21 09:36S 33°25' E 151°55'0 1.6
2017-Aug-21 09:18S 33°25' E 151°55'6 1.6
2017-Aug-21 05:39S 33°22' E 152°02'0 1.3
2017-Aug-21 05:27S 33°22' E 152°02'1 1.4
2017-Aug-21 04:39S 33°22' E 152°03'0 1.5
2017-Aug-21 04:27S 33°22' E 152°03'1 1.4
2017-Aug-21 04:00S 33°22' E 152°04'8 1.7
2017-Aug-20 23:37S 33°19' E 152°13'0 4.1
2017-Aug-20 23:30S 33°19' E 152°13'612.0
2017-Aug-20 22:59S 33°13' E 152°16'714.6
2017-Aug-20 22:30S 33°07' E 152°20'510.7
2017-Aug-20 22:00S 33°02' E 152°21'3 5.5
2017-Aug-20 21:30S 32°59' E 152°20'2 4.9
2017-Aug-20 21:00S 32°57' E 152°21'2 4.7
2017-Aug-20 20:30S 32°55' E 152°20'2 4.7
2017-Aug-20 20:00S 32°53' E 152°19'2 3.9
2017-Aug-20 19:30S 32°52' E 152°17'2 4.9
2017-Aug-20 19:00S 32°53' E 152°14'2 4.9
2017-Aug-20 18:30S 32°54' E 152°11'3 5.4
2017-Aug-20 18:00S 32°57' E 152°10'3 5.8
2017-Aug-20 17:31S 32°59' E 152°08'3 5.8
2017-Aug-20 17:00S 33°02' E 152°07'3 5.9
2017-Aug-20 16:30S 33°05' E 152°06'3 5.9
2017-Aug-20 16:00S 33°08' E 152°05'2 3.5
2017-Aug-20 15:31S 33°09' E 152°05'1 1.4
2017-Aug-20 15:00S 33°10' E 152°04'1 1.3
2017-Aug-20 14:30S 33°11' E 152°04'1 1.2
2017-Aug-20 14:00S 33°11' E 152°04'1 1.2
2017-Aug-20 13:30S 33°12' E 152°03'1 2.0
2017-Aug-20 13:00S 33°13' E 152°03'2 4.7
2017-Aug-20 12:30S 33°15' E 152°01'3 5.4
2017-Aug-20 11:59S 33°17' E 151°60'5 0.4
2017-Aug-19 21:04S 33°17' E 152°06'0 3.0
2017-Aug-19 21:00S 33°17' E 152°06'1 2.3
2017-Aug-19 20:30S 33°16' E 152°06'1 2.1
2017-Aug-19 20:00S 33°15' E 152°06'1 2.0
2017-Aug-19 19:30S 33°14' E 152°07'1 2.0
2017-Aug-19 19:00S 33°14' E 152°08'1 1.7
2017-Aug-19 18:28S 33°13' E 152°09'1 1.9
2017-Aug-19 17:59S 33°13' E 152°10'2 3.3
2017-Aug-19 17:30S 33°12' E 152°11'1 3.0
2017-Aug-19 17:00S 33°11' E 152°12'1 2.7
2017-Aug-19 16:30S 33°10' E 152°14'2 3.0
2017-Aug-19 16:00S 33°08' E 152°14'2 3.1
2017-Aug-19 15:30S 33°07' E 152°15'2 3.3
2017-Aug-19 15:00S 33°05' E 152°16'3 3.2
2017-Aug-19 14:01S 33°03' E 152°18'2 3.7
2017-Aug-19 13:30S 33°01' E 152°19'1 2.8
2017-Aug-19 13:00S 33°00' E 152°20'1 2.9
2017-Aug-19 12:30S 32°59' E 152°21'2 3.2
2017-Aug-19 12:00S 32°58' E 152°22'1 1.8
2017-Aug-19 11:30S 32°58' E 152°23'1 1.6
2017-Aug-19 11:00S 32°57' E 152°23'2 3.3
2017-Aug-19 10:30S 32°55' E 152°23'2 3.2
2017-Aug-19 10:00S 32°54' E 152°23'1 2.9
2017-Aug-19 09:30S 32°52' E 152°24'2 4.0
2017-Aug-19 09:01S 32°51' E 152°25'3 5.0
2017-Aug-19 08:30S 32°48' E 152°26'3 5.2
2017-Aug-19 08:00S 32°46' E 152°28'3 5.6
2017-Aug-19 07:30S 32°45' E 152°31'3 5.3
2017-Aug-19 07:00S 32°43' E 152°33'3 6.1
2017-Aug-19 06:30S 32°42' E 152°36'3 6.5
2017-Aug-19 06:00S 32°39' E 152°38'3 6.8
2017-Aug-19 05:30S 32°36' E 152°40'3 6.7
2017-Aug-19 05:00S 32°33' E 152°41'3 5.9
2017-Aug-19 04:30S 32°30' E 152°43'4 6.1
2017-Aug-19 03:55S 32°27' E 152°45'2 6.1
2017-Aug-19 03:30S 32°25' E 152°46'3 0.2
2017-Aug-18 09:58S 32°28' E 152°45'4 7.7
2017-Aug-18 09:24S 32°29' E 152°49'  
2017-Aug-15 20:16S 33°01' E 153°48'1 4.6
2017-Aug-15 20:00S 32°60' E 153°47'2 4.4
2017-Aug-15 19:30S 32°58' E 153°46'2 4.4
2017-Aug-15 19:00S 32°56' E 153°45'3 4.3
2017-Aug-15 18:25S 32°54' E 153°43'2 4.0
2017-Aug-15 17:56S 32°52' E 153°42'6 3.7
2017-Aug-15 16:16S 32°47' E 153°38'2 3.5
2017-Aug-15 15:45S 32°46' E 153°36'1 3.6
2017-Aug-15 15:30S 32°45' E 153°35'2 3.6
2017-Aug-15 15:01S 32°44' E 153°34'2 3.4
2017-Aug-15 14:25S 32°43' E 153°32'1 3.3
2017-Aug-15 14:01S 32°42' E 153°31'2 3.4
2017-Aug-15 13:30S 32°41' E 153°29'2 3.2
2017-Aug-15 13:01S 32°40' E 153°28'2 3.2
2017-Aug-15 12:31S 32°39' E 153°26'2 3.4
2017-Aug-15 12:01S 32°37' E 153°25'3 5.1
2017-Aug-15 11:31S 32°37' E 153°22'510.0
2017-Aug-15 11:01S 32°39' E 153°17'611.6
2017-Aug-15 10:30S 32°40' E 153°10'612.7
2017-Aug-15 10:01S 32°41' E 153°02'612.9
2017-Aug-15 09:31S 32°41' E 152°55'612.8
2017-Aug-15 09:01S 32°42' E 152°47'1 1.9
2017-Aug-15 08:29S 32°43' E 152°47'1 1.5
2017-Aug-15 07:59S 32°43' E 152°47'1 1.5
2017-Aug-15 07:29S 32°43' E 152°48'1 1.3
2017-Aug-15 06:59S 32°43' E 152°49'0 0.8
2017-Aug-15 06:29S 32°43' E 152°50'1 1.0
2017-Aug-15 05:59S 32°43' E 152°50'0 0.8
2017-Aug-15 05:29S 32°43' E 152°51'0 0.4
2017-Aug-15 04:59S 32°43' E 152°51'0 0.4
2017-Aug-15 04:29S 32°43' E 152°51'0 0.5
2017-Aug-15 03:59S 32°43' E 152°51'0 0.6
2017-Aug-15 03:26S 32°42' E 152°52'0 0.6
2017-Aug-15 02:59S 32°42' E 152°52'0 0.6
2017-Aug-15 02:29S 32°42' E 152°52'0 0.7
2017-Aug-15 01:59S 32°42' E 152°53'0 0.7
2017-Aug-15 01:29S 32°42' E 152°53'0 0.6
2017-Aug-15 00:59S 32°42' E 152°53'0 0.7
2017-Aug-15 00:29S 32°42' E 152°54'0 0.6
2017-Aug-14 23:59S 32°41' E 152°54'0 0.5
2017-Aug-14 23:29S 32°41' E 152°54'0 0.4
2017-Aug-14 22:59S 32°41' E 152°54'0 0.1
2017-Aug-14 22:29S 32°41' E 152°54'0 0.2
2017-Aug-14 21:59S 32°41' E 152°55'0 0.0
2017-Aug-14 21:29S 32°41' E 152°55'0 0.1
2017-Aug-14 20:59S 32°41' E 152°54'0 0.3
2017-Aug-14 20:29S 32°41' E 152°54'0 0.4
2017-Aug-14 19:59S 32°41' E 152°54'0 0.4
2017-Aug-14 19:29S 32°41' E 152°54'0 0.4
2017-Aug-14 18:59S 32°41' E 152°54'0 0.5
2017-Aug-14 18:29S 32°41' E 152°53'0 0.5
2017-Aug-14 17:56S 32°41' E 152°53'0 0.4
2017-Aug-14 17:29S 32°40' E 152°53'0 0.6
2017-Aug-14 16:59S 32°40' E 152°53'1 1.3
2017-Aug-14 16:29S 32°40' E 152°52'1 2.2
2017-Aug-14 16:00S 32°39' E 152°51'3 6.4
2017-Aug-14 15:30S 32°37' E 152°49'510.7
2017-Aug-14 15:00S 32°31' E 152°48'713.1
2017-Aug-14 14:30S 32°25' E 152°51'612.9
2017-Aug-14 14:00S 32°19' E 152°54'713.0
2017-Aug-14 13:30S 32°13' E 152°57'913.2
2017-Aug-14 12:50S 32°05' E 153°01'  

Dump ship's entire track history